To NAV CANADA Home Page Login to a new session Search on AWWS site Disclaimer Vers la page française équivalente Tips FAQ What's new on the site To the Forecasts and Observations / NOTAM section To "File a Flight Plan" website Publications and other links Update of the User's profile FIC Telephone Numbers My Weather Data Folder Route Weather Data Regional Weather Data Local Weather Data To the Forecasts and Observations / NOTAM section
Request Generated 11/13/2018 at 18:20:18 UTC . Weather information available at that time is displayed.

METAR/TAF

HIGH LEVEL/AB    (show WxCam)

METAR CYOJ 131800Z 13009KT 3SM FU OVC004 M08/M08 A2986 RMK SC8 SLP138=
SPECI CYOJ 131715Z 13009KT 3SM FU OVC004 M08/M08 A2988 RMK SC8 SLP146=
METAR CYOJ 131700Z 13008KT 4SM -FZDZ FU OVC004 M08/M08 A2988 RMK SC8 SLP148=
SPECI CYOJ 131612Z 14008KT 6SM FU OVC004 M08/M09 A2990 RMK SC8 SLP154=
METAR CYOJ 131600Z 15009KT 6SM IC OVC004 M08/M09 A2990 RMK SC8 FU SLP152=

TAF AMD CYOJ 131722Z 1317/1401 14010KT 3SM -FZDZ FU BR OVC004 TEMPO
1317/1320 P6SM NSW SCT004 OVC008
FM132000 14005KT P6SM FEW010 SCT120
RMK FCST BASED ON AUTO OBS. NXT FCST BY 131900Z=
Your time UTC time
Weather data provided by Environment Canada and NAV CANADA